sensor_id;sensor_type;location;lat;lon;timestamp;temperature;humidity
27276;DHT22;14772;47.398;8.080;2022-11-06T00:01:28;7.70;99.90
27276;DHT22;14772;47.398;8.080;2022-11-06T00:06:26;7.80;99.90
27276;DHT22;14772;47.398;8.080;2022-11-06T00:11:23;7.80;99.90
27276;DHT22;14772;47.398;8.080;2022-11-06T00:16:20;7.80;99.90
27276;DHT22;14772;47.398;8.080;2022-11-06T00:21:19;7.80;99.90
27276;DHT22;14772;47.398;8.080;2022-11-06T00:26:18;7.80;99.90
27276;DHT22;14772;47.398;8.080;2022-11-06T00:31:17;7.80;99.90
27276;DHT22;14772;47.398;8.080;2022-11-06T00:36:17;7.60;99.90
27276;DHT22;14772;47.398;8.080;2022-11-06T00:41:15;7.70;99.90
27276;DHT22;14772;47.398;8.080;2022-11-06T00:46:13;7.80;99.90
27276;DHT22;14772;47.398;8.080;2022-11-06T00:51:13;7.80;99.90
27276;DHT22;14772;47.398;8.080;2022-11-06T00:56:12;7.90;99.90
27276;DHT22;14772;47.398;8.080;2022-11-06T01:01:12;7.90;99.90
27276;DHT22;14772;47.398;8.080;2022-11-06T01:06:13;7.90;99.90
27276;DHT22;14772;47.398;8.080;2022-11-06T01:11:13;7.90;99.90
27276;DHT22;14772;47.398;8.080;2022-11-06T01:16:13;7.90;99.90
27276;DHT22;14772;47.398;8.080;2022-11-06T01:21:13;8.00;99.90
27276;DHT22;14772;47.398;8.080;2022-11-06T01:26:13;8.00;99.90
27276;DHT22;14772;47.398;8.080;2022-11-06T01:31:12;8.00;99.90
27276;DHT22;14772;47.398;8.080;2022-11-06T01:36:11;7.80;99.90
27276;DHT22;14772;47.398;8.080;2022-11-06T01:41:10;7.80;99.90
27276;DHT22;14772;47.398;8.080;2022-11-06T01:46:12;7.90;99.90
27276;DHT22;14772;47.398;8.080;2022-11-06T01:51:09;7.90;99.90
27276;DHT22;14772;47.398;8.080;2022-11-06T01:56:10;8.00;99.90
27276;DHT22;14772;47.398;8.080;2022-11-06T02:01:09;8.00;99.90
27276;DHT22;14772;47.398;8.080;2022-11-06T02:06:07;8.10;99.90
27276;DHT22;14772;47.398;8.080;2022-11-06T02:11:05;8.00;99.90
27276;DHT22;14772;47.398;8.080;2022-11-06T02:16:08;8.00;99.90
27276;DHT22;14772;47.398;8.080;2022-11-06T02:21:21;8.00;99.90
27276;DHT22;14772;47.398;8.080;2022-11-06T02:26:29;8.10;99.90
27276;DHT22;14772;47.398;8.080;2022-11-06T02:31:30;8.00;99.90
27276;DHT22;14772;47.398;8.080;2022-11-06T02:36:31;8.10;99.90
27276;DHT22;14772;47.398;8.080;2022-11-06T02:41:32;8.00;99.90
27276;DHT22;14772;47.398;8.080;2022-11-06T02:46:33;8.00;99.90
27276;DHT22;14772;47.398;8.080;2022-11-06T02:51:35;8.00;99.90
27276;DHT22;14772;47.398;8.080;2022-11-06T02:56:36;7.90;99.90
27276;DHT22;14772;47.398;8.080;2022-11-06T03:01:37;7.90;99.90
27276;DHT22;14772;47.398;8.080;2022-11-06T03:06:38;7.90;99.90
27276;DHT22;14772;47.398;8.080;2022-11-06T03:11:40;7.80;99.90
27276;DHT22;14772;47.398;8.080;2022-11-06T03:16:43;7.90;99.90
27276;DHT22;14772;47.398;8.080;2022-11-06T03:21:48;7.90;99.90
27276;DHT22;14772;47.398;8.080;2022-11-06T03:26:47;7.90;99.90
27276;DHT22;14772;47.398;8.080;2022-11-06T03:31:49;7.90;99.90
27276;DHT22;14772;47.398;8.080;2022-11-06T03:36:51;7.90;99.90
27276;DHT22;14772;47.398;8.080;2022-11-06T03:41:52;7.80;99.90
27276;DHT22;14772;47.398;8.080;2022-11-06T03:46:52;7.90;99.90
27276;DHT22;14772;47.398;8.080;2022-11-06T03:51:58;7.80;99.90
27276;DHT22;14772;47.398;8.080;2022-11-06T03:56:56;7.80;99.90
27276;DHT22;14772;47.398;8.080;2022-11-06T04:01:54;7.80;99.90
27276;DHT22;14772;47.398;8.080;2022-11-06T04:06:55;7.70;99.90
27276;DHT22;14772;47.398;8.080;2022-11-06T04:11:55;7.70;99.90
27276;DHT22;14772;47.398;8.080;2022-11-06T04:16:57;7.80;99.90
27276;DHT22;14772;47.398;8.080;2022-11-06T04:22:09;7.70;99.90
27276;DHT22;14772;47.398;8.080;2022-11-06T04:27:28;7.80;99.90
27276;DHT22;14772;47.398;8.080;2022-11-06T04:32:32;7.80;99.90
27276;DHT22;14772;47.398;8.080;2022-11-06T04:37:33;7.70;99.90
27276;DHT22;14772;47.398;8.080;2022-11-06T04:42:34;7.80;99.90
27276;DHT22;14772;47.398;8.080;2022-11-06T04:47:37;7.80;99.90
27276;DHT22;14772;47.398;8.080;2022-11-06T04:52:36;7.80;99.90
27276;DHT22;14772;47.398;8.080;2022-11-06T04:57:35;7.80;99.90
27276;DHT22;14772;47.398;8.080;2022-11-06T05:02:32;7.90;99.90
27276;DHT22;14772;47.398;8.080;2022-11-06T05:07:29;7.90;99.90
27276;DHT22;14772;47.398;8.080;2022-11-06T05:12:27;7.80;99.90
27276;DHT22;14772;47.398;8.080;2022-11-06T05:17:25;7.90;99.90
27276;DHT22;14772;47.398;8.080;2022-11-06T05:22:22;7.90;99.90
27276;DHT22;14772;47.398;8.080;2022-11-06T05:27:20;7.90;99.90
27276;DHT22;14772;47.398;8.080;2022-11-06T05:32:17;7.90;99.90
27276;DHT22;14772;47.398;8.080;2022-11-06T05:37:15;7.80;99.90
27276;DHT22;14772;47.398;8.080;2022-11-06T05:42:12;7.80;99.90
27276;DHT22;14772;47.398;8.080;2022-11-06T05:47:10;7.90;99.90
27276;DHT22;14772;47.398;8.080;2022-11-06T05:52:07;7.90;99.90
27276;DHT22;14772;47.398;8.080;2022-11-06T05:57:05;8.00;99.90
27276;DHT22;14772;47.398;8.080;2022-11-06T06:02:03;7.90;99.90
27276;DHT22;14772;47.398;8.080;2022-11-06T06:07:00;7.90;99.90
27276;DHT22;14772;47.398;8.080;2022-11-06T06:11:57;7.80;99.90
27276;DHT22;14772;47.398;8.080;2022-11-06T06:16:54;7.80;99.90
27276;DHT22;14772;47.398;8.080;2022-11-06T06:21:52;7.90;99.90
27276;DHT22;14772;47.398;8.080;2022-11-06T06:26:49;7.80;99.90
27276;DHT22;14772;47.398;8.080;2022-11-06T06:31:46;7.90;99.90
27276;DHT22;14772;47.398;8.080;2022-11-06T06:36:44;7.90;99.90
27276;DHT22;14772;47.398;8.080;2022-11-06T06:41:43;7.90;99.90
27276;DHT22;14772;47.398;8.080;2022-11-06T06:46:40;8.00;99.90
27276;DHT22;14772;47.398;8.080;2022-11-06T06:51:38;8.00;99.90
27276;DHT22;14772;47.398;8.080;2022-11-06T06:56:35;7.80;99.90
27276;DHT22;14772;47.398;8.080;2022-11-06T07:01:33;8.00;99.90
27276;DHT22;14772;47.398;8.080;2022-11-06T07:06:31;7.80;99.90
27276;DHT22;14772;47.398;8.080;2022-11-06T07:11:30;7.90;99.90
27276;DHT22;14772;47.398;8.080;2022-11-06T07:16:28;8.00;99.90
27276;DHT22;14772;47.398;8.080;2022-11-06T07:21:26;8.10;99.90
27276;DHT22;14772;47.398;8.080;2022-11-06T07:26:23;8.10;99.90
27276;DHT22;14772;47.398;8.080;2022-11-06T07:31:21;8.10;99.90
27276;DHT22;14772;47.398;8.080;2022-11-06T07:36:20;8.00;99.90
27276;DHT22;14772;47.398;8.080;2022-11-06T07:41:20;8.10;99.90
27276;DHT22;14772;47.398;8.080;2022-11-06T07:46:19;8.00;99.90
27276;DHT22;14772;47.398;8.080;2022-11-06T07:51:17;8.10;99.90
27276;DHT22;14772;47.398;8.080;2022-11-06T07:56:16;8.20;99.90
27276;DHT22;14772;47.398;8.080;2022-11-06T08:01:15;8.20;99.90
27276;DHT22;14772;47.398;8.080;2022-11-06T08:06:14;8.20;99.90
27276;DHT22;14772;47.398;8.080;2022-11-06T08:11:12;8.30;99.90
27276;DHT22;14772;47.398;8.080;2022-11-06T08:16:15;8.30;99.90
27276;DHT22;14772;47.398;8.080;2022-11-06T08:21:13;8.40;99.90
27276;DHT22;14772;47.398;8.080;2022-11-06T08:26:12;8.50;99.90
27276;DHT22;14772;47.398;8.080;2022-11-06T08:31:11;8.50;99.90
27276;DHT22;14772;47.398;8.080;2022-11-06T08:36:12;8.50;99.90
27276;DHT22;14772;47.398;8.080;2022-11-06T10:14:18;8.70;99.90
27276;DHT22;14772;47.398;8.080;2022-11-06T10:25:03;8.90;99.90
27276;DHT22;14772;47.398;8.080;2022-11-06T10:30:09;9.00;99.90
27276;DHT22;14772;47.398;8.080;2022-11-06T13:04:57;10.20;99.90
27276;DHT22;14772;47.398;8.080;2022-11-06T13:10:06;10.20;99.90
27276;DHT22;14772;47.398;8.080;2022-11-06T13:15:14;10.20;99.90
27276;DHT22;14772;47.398;8.080;2022-11-06T13:20:18;10.10;99.90
27276;DHT22;14772;47.398;8.080;2022-11-06T13:25:19;10.10;99.90
27276;DHT22;14772;47.398;8.080;2022-11-06T13:30:19;10.10;99.90
27276;DHT22;14772;47.398;8.080;2022-11-06T13:35:19;10.20;99.90
27276;DHT22;14772;47.398;8.080;2022-11-06T13:40:28;10.20;99.90
27276;DHT22;14772;47.398;8.080;2022-11-06T13:45:28;10.30;99.90
27276;DHT22;14772;47.398;8.080;2022-11-06T13:50:30;10.30;99.90
27276;DHT22;14772;47.398;8.080;2022-11-06T13:55:35;10.20;99.90
27276;DHT22;14772;47.398;8.080;2022-11-06T14:00:38;10.30;99.90
27276;DHT22;14772;47.398;8.080;2022-11-06T14:05:51;9.70;99.90
27276;DHT22;14772;47.398;8.080;2022-11-06T14:10:53;9.40;99.90
27276;DHT22;14772;47.398;8.080;2022-11-06T14:16:06;9.20;99.90
27276;DHT22;14772;47.398;8.080;2022-11-06T14:21:26;9.60;99.90
27276;DHT22;14772;47.398;8.080;2022-11-06T14:26:38;9.50;99.90
27276;DHT22;14772;47.398;8.080;2022-11-06T14:32:00;9.50;99.90
27276;DHT22;14772;47.398;8.080;2022-11-06T14:36:58;9.60;99.90
27276;DHT22;14772;47.398;8.080;2022-11-06T14:41:57;9.70;99.90
27276;DHT22;14772;47.398;8.080;2022-11-06T14:46:56;9.70;99.90
27276;DHT22;14772;47.398;8.080;2022-11-06T14:51:58;9.90;99.90
27276;DHT22;14772;47.398;8.080;2022-11-06T14:56:57;9.90;99.90
27276;DHT22;14772;47.398;8.080;2022-11-06T15:01:56;9.90;99.90
27276;DHT22;14772;47.398;8.080;2022-11-06T15:06:54;9.90;99.90
27276;DHT22;14772;47.398;8.080;2022-11-06T15:11:56;9.90;99.90
27276;DHT22;14772;47.398;8.080;2022-11-06T15:16:59;10.00;99.90
27276;DHT22;14772;47.398;8.080;2022-11-06T15:21:56;10.00;99.90
27276;DHT22;14772;47.398;8.080;2022-11-06T15:26:58;9.90;99.90
27276;DHT22;14772;47.398;8.080;2022-11-06T15:32:01;10.00;99.90
27276;DHT22;14772;47.398;8.080;2022-11-06T15:37:02;10.00;99.90
27276;DHT22;14772;47.398;8.080;2022-11-06T15:42:00;9.90;99.90
27276;DHT22;14772;47.398;8.080;2022-11-06T15:46:57;9.90;99.90
27276;DHT22;14772;47.398;8.080;2022-11-06T15:51:56;9.90;99.90
27276;DHT22;14772;47.398;8.080;2022-11-06T15:56:54;9.90;99.90
27276;DHT22;14772;47.398;8.080;2022-11-06T16:01:51;9.90;99.90
27276;DHT22;14772;47.398;8.080;2022-11-06T16:06:51;9.80;99.90
27276;DHT22;14772;47.398;8.080;2022-11-06T16:11:51;9.80;99.90
27276;DHT22;14772;47.398;8.080;2022-11-06T16:16:50;9.80;99.90
27276;DHT22;14772;47.398;8.080;2022-11-06T16:21:50;9.70;99.90
27276;DHT22;14772;47.398;8.080;2022-11-06T16:26:48;9.70;99.90
27276;DHT22;14772;47.398;8.080;2022-11-06T16:31:47;9.70;99.90
27276;DHT22;14772;47.398;8.080;2022-11-06T16:36:57;9.70;99.90
27276;DHT22;14772;47.398;8.080;2022-11-06T16:42:02;9.70;99.90
27276;DHT22;14772;47.398;8.080;2022-11-06T16:47:13;9.40;99.90
27276;DHT22;14772;47.398;8.080;2022-11-06T16:52:19;9.30;99.90
27276;DHT22;14772;47.398;8.080;2022-11-06T16:57:20;9.20;99.90
27276;DHT22;14772;47.398;8.080;2022-11-06T17:02:21;9.20;99.90
27276;DHT22;14772;47.398;8.080;2022-11-06T17:07:20;9.40;99.90
27276;DHT22;14772;47.398;8.080;2022-11-06T17:12:18;9.50;99.90
27276;DHT22;14772;47.398;8.080;2022-11-06T17:17:25;9.50;99.90
27276;DHT22;14772;47.398;8.080;2022-11-06T17:22:24;9.50;99.90
27276;DHT22;14772;47.398;8.080;2022-11-06T17:27:21;9.50;99.90
27276;DHT22;14772;47.398;8.080;2022-11-06T17:32:19;9.50;99.90
27276;DHT22;14772;47.398;8.080;2022-11-06T17:37:16;9.40;99.90
27276;DHT22;14772;47.398;8.080;2022-11-06T17:42:14;9.20;99.90
27276;DHT22;14772;47.398;8.080;2022-11-06T17:47:11;9.30;99.90
27276;DHT22;14772;47.398;8.080;2022-11-06T17:52:08;9.40;99.90
27276;DHT22;14772;47.398;8.080;2022-11-06T17:57:06;9.40;99.90
27276;DHT22;14772;47.398;8.080;2022-11-06T18:02:03;9.40;99.90
27276;DHT22;14772;47.398;8.080;2022-11-06T18:07:01;9.20;99.90
27276;DHT22;14772;47.398;8.080;2022-11-06T18:11:58;9.10;99.90
27276;DHT22;14772;47.398;8.080;2022-11-06T18:16:55;9.10;99.90
27276;DHT22;14772;47.398;8.080;2022-11-06T18:21:53;9.10;99.90
27276;DHT22;14772;47.398;8.080;2022-11-06T18:26:51;8.90;99.90
27276;DHT22;14772;47.398;8.080;2022-11-06T18:31:48;8.90;99.90
27276;DHT22;14772;47.398;8.080;2022-11-06T18:36:45;9.10;99.90
27276;DHT22;14772;47.398;8.080;2022-11-06T18:41:42;8.90;99.90
27276;DHT22;14772;47.398;8.080;2022-11-06T18:46:39;8.90;99.90
27276;DHT22;14772;47.398;8.080;2022-11-06T18:51:37;9.10;99.90
27276;DHT22;14772;47.398;8.080;2022-11-06T18:56:35;9.00;99.90
27276;DHT22;14772;47.398;8.080;2022-11-06T19:01:32;9.20;99.90
27276;DHT22;14772;47.398;8.080;2022-11-06T19:06:29;9.40;99.90
27276;DHT22;14772;47.398;8.080;2022-11-06T19:11:27;9.30;99.90
27276;DHT22;14772;47.398;8.080;2022-11-06T19:16:24;9.50;99.90
27276;DHT22;14772;47.398;8.080;2022-11-06T19:21:21;9.40;99.90
27276;DHT22;14772;47.398;8.080;2022-11-06T19:26:18;9.50;99.90
27276;DHT22;14772;47.398;8.080;2022-11-06T19:31:15;9.60;99.90
27276;DHT22;14772;47.398;8.080;2022-11-06T19:36:13;9.50;99.90
27276;DHT22;14772;47.398;8.080;2022-11-06T19:41:10;9.60;99.90
27276;DHT22;14772;47.398;8.080;2022-11-06T19:46:07;9.60;99.90
27276;DHT22;14772;47.398;8.080;2022-11-06T19:51:09;9.50;99.90
27276;DHT22;14772;47.398;8.080;2022-11-06T19:56:08;9.30;99.90
27276;DHT22;14772;47.398;8.080;2022-11-06T20:01:07;9.50;99.90
27276;DHT22;14772;47.398;8.080;2022-11-06T20:06:05;9.60;99.90
27276;DHT22;14772;47.398;8.080;2022-11-06T20:11:02;9.60;99.90
27276;DHT22;14772;47.398;8.080;2022-11-06T20:16:00;9.60;99.90
27276;DHT22;14772;47.398;8.080;2022-11-06T20:20:59;9.60;99.90
27276;DHT22;14772;47.398;8.080;2022-11-06T20:25:57;9.40;99.90
27276;DHT22;14772;47.398;8.080;2022-11-06T20:30:55;9.50;99.90
27276;DHT22;14772;47.398;8.080;2022-11-06T20:35:52;9.40;99.90
27276;DHT22;14772;47.398;8.080;2022-11-06T20:40:53;9.50;99.90
27276;DHT22;14772;47.398;8.080;2022-11-06T20:45:50;9.50;99.90
27276;DHT22;14772;47.398;8.080;2022-11-06T20:50:56;9.50;99.90
27276;DHT22;14772;47.398;8.080;2022-11-06T20:55:56;9.60;99.90
27276;DHT22;14772;47.398;8.080;2022-11-06T21:01:00;9.60;99.90
27276;DHT22;14772;47.398;8.080;2022-11-06T21:05:58;9.60;99.90
27276;DHT22;14772;47.398;8.080;2022-11-06T21:10:57;9.50;99.90
27276;DHT22;14772;47.398;8.080;2022-11-06T21:15:59;9.50;99.90
27276;DHT22;14772;47.398;8.080;2022-11-06T21:20:56;9.60;99.90
27276;DHT22;14772;47.398;8.080;2022-11-06T21:25:53;9.70;99.90
27276;DHT22;14772;47.398;8.080;2022-11-06T21:30:50;9.60;99.90
27276;DHT22;14772;47.398;8.080;2022-11-06T21:35:48;9.70;99.90
27276;DHT22;14772;47.398;8.080;2022-11-06T21:40:45;9.70;99.90
27276;DHT22;14772;47.398;8.080;2022-11-06T21:45:42;9.80;99.90
27276;DHT22;14772;47.398;8.080;2022-11-06T21:50:39;9.70;99.90
27276;DHT22;14772;47.398;8.080;2022-11-06T21:55:36;9.50;99.90
27276;DHT22;14772;47.398;8.080;2022-11-06T22:00:37;9.30;99.90
27276;DHT22;14772;47.398;8.080;2022-11-06T22:05:34;9.20;99.90
27276;DHT22;14772;47.398;8.080;2022-11-06T22:10:31;9.20;99.90
27276;DHT22;14772;47.398;8.080;2022-11-06T22:15:29;9.50;99.90
27276;DHT22;14772;47.398;8.080;2022-11-06T22:20:26;9.60;99.90
27276;DHT22;14772;47.398;8.080;2022-11-06T22:25:23;9.70;99.90
27276;DHT22;14772;47.398;8.080;2022-11-06T22:30:20;9.70;99.90
27276;DHT22;14772;47.398;8.080;2022-11-06T22:35:18;9.80;99.90
27276;DHT22;14772;47.398;8.080;2022-11-06T22:40:15;9.80;99.90
27276;DHT22;14772;47.398;8.080;2022-11-06T22:45:12;9.80;99.90
27276;DHT22;14772;47.398;8.080;2022-11-06T22:50:10;9.90;99.90
27276;DHT22;14772;47.398;8.080;2022-11-06T22:55:08;9.70;99.90
27276;DHT22;14772;47.398;8.080;2022-11-06T23:00:08;9.70;99.90
27276;DHT22;14772;47.398;8.080;2022-11-06T23:05:06;9.80;99.90
27276;DHT22;14772;47.398;8.080;2022-11-06T23:10:06;9.90;99.90
27276;DHT22;14772;47.398;8.080;2022-11-06T23:15:06;9.80;99.90
27276;DHT22;14772;47.398;8.080;2022-11-06T23:20:04;9.90;99.90
27276;DHT22;14772;47.398;8.080;2022-11-06T23:25:02;9.90;99.90
27276;DHT22;14772;47.398;8.080;2022-11-06T23:29:59;9.90;99.90
27276;DHT22;14772;47.398;8.080;2022-11-06T23:34:56;9.90;99.90
27276;DHT22;14772;47.398;8.080;2022-11-06T23:39:53;9.90;99.90
27276;DHT22;14772;47.398;8.080;2022-11-06T23:44:51;9.80;99.90
27276;DHT22;14772;47.398;8.080;2022-11-06T23:49:48;9.80;99.90
27276;DHT22;14772;47.398;8.080;2022-11-06T23:54:45;9.70;99.90
27276;DHT22;14772;47.398;8.080;2022-11-06T23:59:42;9.70;99.90
